首页
METAR-TAF:

METAR-TAF

机场 :

查尔斯顿, 南卡罗来纳州, 美国

纬度: 32-53-56N, 经度: 080-02-26W, 海拔: 14米

当前天气观测

该预报发布于37分钟前的20:05 UTC
风速6节,风向西南
温度 24°C
湿度 83%
气压 1015 hPa
能見度: 4.8公里
少量云层高于2000英尺
散云层高于2900英尺
多云层高于7000英尺
阴天层高于20000英尺
大雨

METAR: KCHS 062005Z COR 22006KT 3SM R15/3000VP6000FT +RA FEW020 SCT029 BKN070 OVC200 24/21 A2998 RMK AO2 LTG DSNT SE-SW TS DSIPTD CB DSNT SE-SW P0007 T02440211 $

时间: 16:42 (20:42 UTC)

预报

该预报发布于1小时和27分钟前的19:15 UTC
预报有效从06日的 19点(UTC)到 07日的 18点(UTC)
风速9节,风向西转西南
能見度: 10公里
散云层高于3500英尺, 积雨云.
多云层高于15000英尺
附近有雷暴
从 06日的 2100点(UTC)
风速13节,风向南转西南,有时为21节阵风
能見度: 10公里
少量云层高于4000英尺
多云层高于15000英尺
附近有阵雨
从 07日的 0100点(UTC)
风速9节,风向西南
能見度: 10公里
散云层高于5000英尺
阴天层高于15000英尺
从 07日的 0900点(UTC)
风速5节,风向西转西南
能見度: 10公里
散云层高于1500英尺
阴天层高于15000英尺

TAF: KCHS 061915Z 0619/0718 25009KT P6SM VCTS SCT035CB BKN150 FM062100 21013G21KT P6SM VCSH FEW040 BKN150 FM070100 23009KT P6SM SCT050 OVC150 FM070900 24005KT P6SM SCT015 OVC150

超过4000个机场的气象观测和天气预报(METAR&TAF报告)。

可查询的气象台以黄色和红色小点在地图上表示。

将鼠标移到小点上方,可查看气象台名称。

然后点击查看天气观测和预报。

如需切换地图:点击带黑十字的绿色按钮放大地图;点击带横线的绿色按钮缩小地图;或者点击绿色箭头查看邻近地区的地图。


METAR-TAF: